createdAt,value
2018-06-16T00:00:51.968Z,1011.85
2018-06-16T00:01:51.995Z,1011.86
2018-06-16T00:02:52.020Z,1011.85
2018-06-16T00:03:52.046Z,1011.86
2018-06-16T00:04:52.061Z,1011.85
2018-06-16T00:05:52.088Z,1011.84
2018-06-16T00:06:52.130Z,1011.86
2018-06-16T00:07:52.137Z,1011.81
2018-06-16T00:08:52.169Z,1011.87
2018-06-16T00:09:52.180Z,1011.85
2018-06-16T00:10:52.203Z,1011.82
2018-06-16T00:11:52.241Z,1011.84
2018-06-16T00:12:52.255Z,1011.83
2018-06-16T00:13:52.281Z,1011.83
2018-06-16T00:14:52.294Z,1011.86
2018-06-16T00:15:52.320Z,1011.85
2018-06-16T00:16:52.349Z,1011.84
2018-06-16T00:17:52.372Z,1011.84
2018-06-16T00:18:52.385Z,1011.88
2018-06-16T00:19:52.411Z,1011.86
2018-06-16T00:20:52.438Z,1011.86
2018-06-16T00:21:52.462Z,1011.88
2018-06-16T00:22:52.477Z,1011.87
2018-06-16T00:23:52.503Z,1011.82
2018-06-16T00:24:52.529Z,1011.87
2018-06-16T00:25:52.555Z,1011.88
2018-06-16T00:26:52.580Z,1011.92
2018-06-16T00:27:52.593Z,1011.90
2018-06-16T00:28:52.620Z,1011.94
2018-06-16T00:29:52.645Z,1011.96
2018-06-16T00:30:52.672Z,1011.94
2018-06-16T00:31:52.698Z,1011.96
2018-06-16T00:32:52.713Z,1011.94
2018-06-16T00:33:52.737Z,1011.93
2018-06-16T00:34:52.763Z,1011.96
2018-06-16T00:35:52.792Z,1011.96
2018-06-16T00:36:52.801Z,1011.94
2018-06-16T00:37:52.827Z,1011.94
2018-06-16T00:38:52.854Z,1011.93
2018-06-16T00:39:52.879Z,1011.96
2018-06-16T00:40:52.906Z,1011.93
2018-06-16T00:41:52.930Z,1011.92
2018-06-16T00:42:52.950Z,1011.93
2018-06-16T00:43:52.971Z,1011.95
2018-06-16T00:44:53.000Z,1011.91
2018-06-16T00:45:53.010Z,1011.92
2018-06-16T00:46:53.036Z,1011.90
2018-06-16T00:47:53.064Z,1011.95
2018-06-16T00:48:53.088Z,1011.94
2018-06-16T00:49:53.104Z,1012.00
2018-06-16T00:50:53.128Z,1011.98
2018-06-16T00:51:53.158Z,1011.94
2018-06-16T00:52:53.226Z,1012.01
2018-06-16T00:53:53.206Z,1012.03
2018-06-16T00:54:53.220Z,1012.01
2018-06-16T00:55:53.245Z,1012.03
2018-06-16T00:56:53.270Z,1012.05
2018-06-16T00:57:53.297Z,1011.99
2018-06-16T00:58:53.311Z,1012.04
2018-06-16T00:59:53.336Z,1012.02
2018-06-16T01:00:53.362Z,1012.04
2018-06-16T01:01:53.389Z,1012.04
2018-06-16T01:02:53.401Z,1012.00
2018-06-16T01:03:53.430Z,1012.01
2018-06-16T01:04:53.453Z,1012.00
2018-06-16T01:05:53.480Z,1012.03
2018-06-16T01:06:53.494Z,1012.03
2018-06-16T01:07:53.518Z,1012.00
2018-06-16T01:08:53.545Z,1012.01
2018-06-16T01:09:53.571Z,1012.07
2018-06-16T01:10:53.584Z,1012.06
2018-06-16T01:11:53.609Z,1012.03
2018-06-16T01:12:53.635Z,1012.07
2018-06-16T01:13:53.661Z,1012.04
2018-06-16T01:14:53.688Z,1012.05
2018-06-16T01:15:53.705Z,1012.06
2018-06-16T01:16:53.729Z,1012.02
2018-06-16T01:17:53.754Z,1012.01
2018-06-16T01:18:53.780Z,1012.02
2018-06-16T01:19:53.795Z,1012.04
2018-06-16T01:20:53.818Z,1012.05
2018-06-16T01:21:53.844Z,1012.04
2018-06-16T01:22:53.871Z,1011.98
2018-06-16T01:23:53.896Z,1012.00
2018-06-16T01:24:53.910Z,1011.97
2018-06-16T01:25:53.937Z,1011.99
2018-06-16T01:26:53.963Z,1011.99
2018-06-16T01:27:53.976Z,1011.97
2018-06-16T01:28:54.001Z,1011.97
2018-06-16T01:29:54.027Z,1011.95
2018-06-16T01:30:54.055Z,1011.99
2018-06-16T01:31:54.067Z,1011.94
2018-06-16T01:32:54.094Z,1011.96
2018-06-16T01:33:54.119Z,1011.94
2018-06-16T01:34:54.145Z,1011.93
2018-06-16T01:35:54.158Z,1011.89
2018-06-16T01:36:54.183Z,1011.88
2018-06-16T01:37:54.225Z,1011.91
2018-06-16T01:38:54.235Z,1011.89
2018-06-16T01:39:54.251Z,1011.90
2018-06-16T01:40:54.275Z,1011.92
2018-06-16T01:41:54.301Z,1011.89
2018-06-16T01:42:54.328Z,1011.86
2018-06-16T01:43:54.342Z,1011.90
2018-06-16T01:44:54.380Z,1011.88
2018-06-16T01:45:54.393Z,1011.91
2018-06-16T01:46:54.419Z,1011.89
2018-06-16T01:47:54.433Z,1011.91
2018-06-16T01:48:54.459Z,1011.87
2018-06-16T01:49:54.484Z,1011.88
2018-06-16T01:50:54.512Z,1011.87
2018-06-16T01:51:54.523Z,1011.94
2018-06-16T01:52:54.549Z,1011.93
2018-06-16T01:53:54.575Z,1011.91
2018-06-16T01:54:54.602Z,1011.92
2018-06-16T01:55:54.616Z,1011.93
2018-06-16T01:56:54.641Z,1011.96
2018-06-16T01:57:54.667Z,1011.95
2018-06-16T01:58:54.682Z,1011.92
2018-06-16T01:59:54.706Z,1011.92
2018-06-16T02:00:54.732Z,1011.93
2018-06-16T02:01:54.757Z,1011.97
2018-06-16T02:02:54.771Z,1011.95
2018-06-16T02:03:54.798Z,1011.97
2018-06-16T02:04:54.823Z,1011.98
2018-06-16T02:05:54.850Z,1011.94
2018-06-16T02:06:54.864Z,1011.89
2018-06-16T02:07:54.901Z,1011.93
2018-06-16T02:08:54.914Z,1011.92
2018-06-16T02:09:54.941Z,1011.89
2018-06-16T02:10:54.954Z,1011.83
2018-06-16T02:11:54.981Z,1011.82
2018-06-16T02:12:55.007Z,1011.78
2018-06-16T02:13:55.033Z,1011.76
2018-06-16T02:14:55.046Z,1011.76
2018-06-16T02:15:55.071Z,1011.81
2018-06-16T02:16:55.097Z,1011.76
2018-06-16T02:17:55.123Z,1011.76
2018-06-16T02:18:55.137Z,1011.76
2018-06-16T02:19:55.163Z,1011.74
2018-06-16T02:20:55.189Z,1011.75
2018-06-16T02:21:55.202Z,1011.75
2018-06-16T02:22:55.227Z,1011.72
2018-06-16T02:23:55.253Z,1011.78
2018-06-16T02:24:55.279Z,1011.78
2018-06-16T02:25:55.293Z,1011.77
2018-06-16T02:26:55.319Z,1011.76
2018-06-16T02:27:55.345Z,1011.78
2018-06-16T02:28:55.373Z,1011.78
2018-06-16T02:29:55.385Z,1011.78
2018-06-16T02:30:55.410Z,1011.79
2018-06-16T02:31:55.444Z,1011.73
2018-06-16T02:32:55.452Z,1011.80
2018-06-16T02:33:55.477Z,1011.78
2018-06-16T02:34:55.507Z,1011.80
2018-06-16T02:35:55.528Z,1011.77
2018-06-16T02:36:55.541Z,1011.81
2018-06-16T02:37:55.571Z,1011.79
2018-06-16T02:38:55.595Z,1011.79
2018-06-16T02:39:55.620Z,1011.80
2018-06-16T02:40:55.633Z,1011.80
2018-06-16T02:41:55.662Z,1011.81
2018-06-16T02:42:55.687Z,1011.80
2018-06-16T02:43:55.699Z,1011.81
2018-06-16T02:44:55.754Z,1011.83
2018-06-16T02:45:55.755Z,1011.81
2018-06-16T02:46:55.776Z,1011.83
2018-06-16T02:47:55.790Z,1011.84
2018-06-16T02:48:55.817Z,1011.86
2018-06-16T02:49:55.841Z,1011.85
2018-06-16T02:50:55.867Z,1011.82
2018-06-16T02:51:55.880Z,1011.86
2018-06-16T02:52:55.906Z,1011.82
2018-06-16T02:53:55.932Z,1011.83
2018-06-16T02:54:55.989Z,1011.82
2018-06-16T02:55:55.973Z,1011.84
2018-06-16T02:56:55.999Z,1011.84
2018-06-16T02:57:56.026Z,1011.84
2018-06-16T02:58:56.037Z,1011.88
2018-06-16T02:59:56.063Z,1011.82
2018-06-16T03:00:56.089Z,1011.82
2018-06-16T03:01:56.115Z,1011.84
2018-06-16T03:02:56.129Z,1011.83
2018-06-16T03:03:56.155Z,1011.83
2018-06-16T03:04:56.181Z,1011.85
2018-06-16T03:05:56.206Z,1011.84
2018-06-16T03:06:56.219Z,1011.84
2018-06-16T03:07:56.245Z,1011.84
2018-06-16T03:08:56.277Z,1011.86
2018-06-16T03:09:56.297Z,1011.82
2018-06-16T03:10:56.312Z,1011.82
2018-06-16T03:11:56.340Z,1011.81
2018-06-16T03:12:56.362Z,1011.82
2018-06-16T03:13:56.377Z,1011.82
2018-06-16T03:14:56.403Z,1011.81
2018-06-16T03:15:56.428Z,1011.78
2018-06-16T03:16:56.454Z,1011.82
2018-06-16T03:17:56.471Z,1011.76
2018-06-16T03:18:56.494Z,1011.76
2018-06-16T03:19:56.520Z,1011.74
2018-06-16T03:20:56.546Z,1011.83
2018-06-16T03:21:56.559Z,1011.82
2018-06-16T03:22:56.584Z,1011.82
2018-06-16T03:23:56.610Z,1011.84
2018-06-16T03:24:56.637Z,1011.80
2018-06-16T03:25:56.653Z,1011.78
2018-06-16T03:26:56.681Z,1011.80
2018-06-16T03:27:56.702Z,1011.74
2018-06-16T03:28:56.749Z,1011.73
2018-06-16T03:29:56.742Z,1011.75
2018-06-16T03:30:56.767Z,1011.75
2018-06-16T03:31:56.793Z,1011.72
2018-06-16T03:32:56.832Z,1011.75
2018-06-16T03:33:56.838Z,1011.75
2018-06-16T03:34:56.859Z,1011.73
2018-06-16T03:35:56.886Z,1011.73
2018-06-16T03:36:56.903Z,1011.73
2018-06-16T03:37:56.923Z,1011.71
2018-06-16T03:38:56.949Z,1011.65
2018-06-16T03:39:56.989Z,1011.66
2018-06-16T03:40:57.001Z,1011.69
2018-06-16T03:41:57.015Z,1011.70
2018-06-16T03:42:57.042Z,1011.69
2018-06-16T03:43:57.068Z,1011.68
2018-06-16T03:44:57.081Z,1011.69
2018-06-16T03:45:57.106Z,1011.70
2018-06-16T03:46:57.133Z,1011.72
2018-06-16T03:47:57.162Z,1011.71
2018-06-16T03:48:57.184Z,1011.70
2018-06-16T03:49:57.200Z,1011.73
2018-06-16T03:50:57.224Z,1011.74
2018-06-16T03:51:57.250Z,1011.70
2018-06-16T03:52:57.276Z,1011.69
2018-06-16T03:53:57.289Z,1011.70
2018-06-16T03:54:57.315Z,1011.72
2018-06-16T03:55:57.340Z,1011.72
2018-06-16T03:56:57.368Z,1011.75
2018-06-16T03:57:57.380Z,1011.74
2018-06-16T03:58:57.407Z,1011.71
2018-06-16T03:59:57.433Z,1011.72
2018-06-16T04:00:57.458Z,1011.74
2018-06-16T04:01:57.474Z,1011.72
2018-06-16T04:02:57.498Z,1011.79
2018-06-16T04:03:57.523Z,1011.76
2018-06-16T04:04:57.549Z,1011.74
2018-06-16T04:05:57.575Z,1011.78
2018-06-16T04:06:57.592Z,1011.81
2018-06-16T04:07:57.615Z,1011.80
2018-06-16T04:08:57.642Z,1011.78
2018-06-16T04:09:57.667Z,1011.79
2018-06-16T04:10:57.684Z,1011.81
2018-06-16T04:11:57.712Z,1011.78
2018-06-16T04:12:57.743Z,1011.81
2018-06-16T04:13:57.758Z,1011.81
2018-06-16T04:14:57.784Z,1011.80
2018-06-16T04:15:57.799Z,1011.83
2018-06-16T04:16:57.827Z,1011.82
2018-06-16T04:17:57.851Z,1011.75
2018-06-16T04:18:57.879Z,1011.74
2018-06-16T04:19:57.907Z,1011.76
2018-06-16T04:20:57.915Z,1011.77
2018-06-16T04:21:57.941Z,1011.76
2018-06-16T04:22:57.973Z,1011.74
2018-06-16T04:23:58.052Z,1011.76
2018-06-16T04:24:58.022Z,1011.73
2018-06-16T04:25:58.033Z,1011.72
2018-06-16T04:26:58.060Z,1011.75
2018-06-16T04:27:58.086Z,1011.74
2018-06-16T04:28:58.112Z,1011.73
2018-06-16T04:29:58.138Z,1011.75
2018-06-16T04:30:58.149Z,1011.78
2018-06-16T04:31:58.189Z,1011.79
2018-06-16T04:32:58.202Z,1011.76
2018-06-16T04:33:58.228Z,1011.78
2018-06-16T04:34:58.255Z,1011.80
2018-06-16T04:35:58.268Z,1011.80
2018-06-16T04:36:58.293Z,1011.79
2018-06-16T04:37:58.320Z,1011.79
2018-06-16T04:38:58.344Z,1011.75
2018-06-16T04:39:58.372Z,1011.73
2018-06-16T04:40:58.385Z,1011.73
2018-06-16T04:41:58.410Z,1011.74
2018-06-16T04:42:58.435Z,1011.73
2018-06-16T04:43:58.461Z,1011.76
2018-06-16T04:44:58.488Z,1011.73
2018-06-16T04:45:58.513Z,1011.79
2018-06-16T04:46:58.528Z,1011.75
2018-06-16T04:47:58.553Z,1011.73
2018-06-16T04:48:58.580Z,1011.75
2018-06-16T04:49:58.606Z,1011.72
2018-06-16T04:50:58.632Z,1011.70
2018-06-16T04:51:58.661Z,1011.76
2018-06-16T04:52:58.672Z,1011.75
2018-06-16T04:53:58.697Z,1011.77
2018-06-16T04:54:58.724Z,1011.80
2018-06-16T04:55:58.748Z,1011.76
2018-06-16T04:56:58.793Z,1011.82
2018-06-16T04:57:58.800Z,1011.82
2018-06-16T04:58:58.825Z,1011.79
2018-06-16T04:59:58.866Z,1011.77
2018-06-16T05:00:58.866Z,1011.77
2018-06-16T05:01:58.891Z,1011.82
2018-06-16T05:02:58.920Z,1011.78
2018-06-16T05:03:58.944Z,1011.74
2018-06-16T05:04:58.970Z,1011.73
2018-06-16T05:05:58.997Z,1011.77
2018-06-16T05:06:59.021Z,1011.77
2018-06-16T05:07:59.035Z,1011.80
2018-06-16T05:08:59.060Z,1011.77
2018-06-16T05:09:59.085Z,1011.75
2018-06-16T05:10:59.112Z,1011.76
2018-06-16T05:11:59.137Z,1011.80
2018-06-16T05:12:59.164Z,1011.80
2018-06-16T05:13:59.190Z,1011.80
2018-06-16T05:14:59.216Z,1011.83
2018-06-16T05:15:59.242Z,1011.82
2018-06-16T05:16:59.323Z,1011.85
2018-06-16T05:17:59.295Z,1011.85
2018-06-16T05:18:59.308Z,1011.86
2018-06-16T05:19:59.337Z,1011.83
2018-06-16T05:20:59.361Z,1011.84
2018-06-16T05:21:59.428Z,1011.82
2018-06-16T05:22:59.412Z,1011.81
2018-06-16T05:23:59.438Z,1011.78
2018-06-16T05:24:59.463Z,1011.82
2018-06-16T05:25:59.490Z,1011.83
2018-06-16T05:26:59.515Z,1011.80
2018-06-16T05:27:59.540Z,1011.82
2018-06-16T05:28:59.569Z,1011.83
2018-06-16T05:29:59.592Z,1011.85
2018-06-16T05:30:59.619Z,1011.89
2018-06-16T05:31:59.633Z,1011.85
2018-06-16T05:32:59.659Z,1011.87
2018-06-16T05:33:59.697Z,1011.84
2018-06-16T05:34:59.709Z,1011.86
2018-06-16T05:35:59.736Z,1011.85
2018-06-16T05:36:59.761Z,1011.86
2018-06-16T05:37:59.787Z,1011.82
2018-06-16T05:38:59.813Z,1011.83
2018-06-16T05:39:59.840Z,1011.83
2018-06-16T05:40:59.865Z,1011.79
2018-06-16T05:41:59.894Z,1011.84
2018-06-16T05:42:59.929Z,1011.84
2018-06-16T05:43:59.943Z,1011.83
2018-06-16T05:44:59.969Z,1011.86
2018-06-16T05:45:59.997Z,1011.87
2018-06-16T05:47:00.025Z,1011.91
2018-06-16T05:48:00.047Z,1011.91
2018-06-16T05:49:00.073Z,1011.90
2018-06-16T05:50:00.099Z,1011.95
2018-06-16T05:51:00.125Z,1011.97
2018-06-16T05:52:00.151Z,1011.98
2018-06-16T05:53:00.176Z,1011.96
2018-06-16T05:54:00.217Z,1011.95
2018-06-16T05:55:00.229Z,1011.94
2018-06-16T05:56:00.255Z,1011.98
2018-06-16T05:57:00.280Z,1011.96
2018-06-16T05:58:00.321Z,1011.97
2018-06-16T05:59:00.332Z,1011.99
2018-06-16T06:00:00.360Z,1012.02
2018-06-16T06:01:00.399Z,1012.01
2018-06-16T06:02:00.423Z,1012.01
2018-06-16T06:03:00.450Z,1012.03
2018-06-16T06:04:00.476Z,1012.00
2018-06-16T06:05:00.503Z,1011.98
2018-06-16T06:06:00.527Z,1012.02
2018-06-16T06:07:00.553Z,1012.02
2018-06-16T06:08:00.580Z,1012.00
2018-06-16T06:09:00.606Z,1012.01
2018-06-16T06:10:00.631Z,1012.03
2018-06-16T06:11:00.659Z,1012.03
2018-06-16T06:12:00.700Z,1012.05
2018-06-16T06:13:00.709Z,1012.02
2018-06-16T06:14:00.749Z,1012.06
2018-06-16T06:15:00.776Z,1012.07
2018-06-16T06:16:00.801Z,1012.07
2018-06-16T06:17:00.826Z,1012.07
2018-06-16T06:18:00.864Z,1012.14
2018-06-16T06:19:00.880Z,1012.10
2018-06-16T06:20:00.917Z,1012.16
2018-06-16T06:21:00.930Z,1012.19
2018-06-16T06:22:00.956Z,1012.17
2018-06-16T06:23:00.984Z,1012.18
2018-06-16T06:24:01.019Z,1012.14
2018-06-16T06:25:01.047Z,1012.13
2018-06-16T06:26:01.072Z,1012.15
2018-06-16T06:27:01.097Z,1012.15
2018-06-16T06:28:01.122Z,1012.19
2018-06-16T06:29:01.149Z,1012.15
2018-06-16T06:30:01.177Z,1012.13
2018-06-16T06:31:01.212Z,1012.14
2018-06-16T06:32:01.323Z,1012.14
2018-06-16T06:33:01.265Z,1012.14
2018-06-16T06:34:01.292Z,1012.18
2018-06-16T06:35:01.317Z,1012.17
2018-06-16T06:36:01.343Z,1012.17
2018-06-16T06:37:01.370Z,1012.18
2018-06-16T06:38:01.408Z,1012.18
2018-06-16T06:39:01.435Z,1012.14
2018-06-16T06:40:01.460Z,1012.15
2018-06-16T06:41:01.486Z,1012.12
2018-06-16T06:42:01.513Z,1012.11
2018-06-16T06:43:01.571Z,1012.12
2018-06-16T06:44:01.575Z,1012.06
2018-06-16T06:45:01.615Z,1012.14
2018-06-16T06:46:01.643Z,1012.11
2018-06-16T06:47:01.655Z,1012.14
2018-06-16T06:48:01.681Z,1012.12
2018-06-16T06:49:01.718Z,1012.13
2018-06-16T06:50:01.753Z,1012.12
2018-06-16T06:51:01.773Z,1012.11
2018-06-16T06:52:01.798Z,1012.10
2018-06-16T06:53:01.838Z,1012.12
2018-06-16T06:54:01.872Z,1012.16
2018-06-16T06:55:01.887Z,1012.15
2018-06-16T06:56:01.912Z,1012.13
2018-06-16T06:57:01.938Z,1012.14
2018-06-16T06:58:02.076Z,1012.17
2018-06-16T06:59:02.003Z,1012.17
2018-06-16T07:00:02.030Z,1012.17
2018-06-16T07:01:02.058Z,1012.19
2018-06-16T07:02:02.092Z,1012.15
2018-06-16T07:03:02.123Z,1012.16
2018-06-16T07:04:02.231Z,1012.17
2018-06-16T07:05:02.171Z,1012.17
2018-06-16T07:06:02.198Z,1012.17
2018-06-16T07:07:02.237Z,1012.15
2018-06-16T07:08:02.267Z,1012.15
2018-06-16T07:09:02.287Z,1012.12
2018-06-16T07:10:02.313Z,1012.15
2018-06-16T07:11:02.354Z,1012.13
2018-06-16T07:12:02.377Z,1012.17
2018-06-16T07:13:02.404Z,1012.17
2018-06-16T07:14:02.431Z,1012.17
2018-06-16T07:15:02.469Z,1012.13
2018-06-16T07:16:02.495Z,1012.13
2018-06-16T07:17:02.521Z,1012.13
2018-06-16T07:18:02.559Z,1012.16
2018-06-16T07:19:02.584Z,1012.17
2018-06-16T07:20:02.610Z,1012.14
2018-06-16T07:21:02.650Z,1012.14
2018-06-16T07:22:02.675Z,1012.16
2018-06-16T07:23:02.704Z,1012.14
2018-06-16T07:24:02.740Z,1012.18
2018-06-16T07:25:02.764Z,1012.12
2018-06-16T07:26:02.793Z,1012.17
2018-06-16T07:27:02.866Z,1012.16
2018-06-16T07:28:02.855Z,1012.15
2018-06-16T07:29:02.884Z,1012.17
2018-06-16T07:30:02.920Z,1012.15
2018-06-16T07:31:02.945Z,1012.17
2018-06-16T07:32:02.973Z,1012.14
2018-06-16T07:33:03.011Z,1012.13
2018-06-16T07:34:03.037Z,1012.15
2018-06-16T07:35:03.075Z,1012.14
2018-06-16T07:36:03.104Z,1012.14
2018-06-16T07:37:03.142Z,1012.13
2018-06-16T07:38:03.165Z,1012.11
2018-06-16T07:39:03.192Z,1012.07
2018-06-16T07:40:03.229Z,1012.08
2018-06-16T07:41:03.255Z,1012.07
2018-06-16T07:42:03.282Z,1012.09
2018-06-16T07:43:03.324Z,1012.01
2018-06-16T07:44:03.347Z,1012.00
2018-06-16T07:45:03.386Z,1011.99
2018-06-16T07:46:03.409Z,1011.98
2018-06-16T07:47:03.436Z,1011.98
2018-06-16T07:48:03.475Z,1012.01
2018-06-16T07:49:03.503Z,1012.03
2018-06-16T07:50:03.542Z,1012.02
2018-06-16T07:51:03.570Z,1012.06
2018-06-16T07:52:03.603Z,1012.06
2018-06-16T07:53:03.629Z,1012.10
2018-06-16T07:54:03.667Z,1012.11
2018-06-16T07:55:03.693Z,1012.11
2018-06-16T07:56:03.731Z,1012.15
2018-06-16T07:57:03.770Z,1012.13
2018-06-16T07:58:03.795Z,1012.13
2018-06-16T07:59:03.835Z,1012.14
2018-06-16T08:00:03.864Z,1012.10
2018-06-16T08:01:03.898Z,1012.11
2018-06-16T08:02:03.925Z,1012.15
2018-06-16T08:03:03.964Z,1012.17
2018-06-16T08:04:04.002Z,1012.14
2018-06-16T08:05:04.028Z,1012.13
2018-06-16T08:06:04.068Z,1012.16
2018-06-16T08:07:04.093Z,1012.10
2018-06-16T08:08:04.130Z,1012.13
2018-06-16T08:09:04.170Z,1012.11
2018-06-16T08:10:04.195Z,1012.18
2018-06-16T08:11:04.233Z,1012.10
2018-06-16T08:12:04.272Z,1012.10
2018-06-16T08:13:04.300Z,1012.09
2018-06-16T08:14:04.336Z,1012.11
2018-06-16T08:15:04.375Z,1012.07
2018-06-16T08:16:04.402Z,1012.11
2018-06-16T08:17:04.439Z,1012.07
2018-06-16T08:18:04.486Z,1012.04
2018-06-16T08:19:04.516Z,1012.09
2018-06-16T08:20:04.542Z,1012.01
2018-06-16T08:21:04.581Z,1011.97
2018-06-16T08:22:04.618Z,1012.00
2018-06-16T08:23:04.646Z,1012.00
2018-06-16T08:24:04.684Z,1012.01
2018-06-16T08:25:04.721Z,1012.03
2018-06-16T08:26:04.760Z,1012.00
2018-06-16T08:27:04.790Z,1012.00
2018-06-16T08:28:04.824Z,1011.99
2018-06-16T08:29:04.863Z,1012.01
2018-06-16T08:30:04.901Z,1011.99
2018-06-16T08:31:04.928Z,1011.99
2018-06-16T08:32:04.965Z,1011.96
2018-06-16T08:33:05.006Z,1011.96
2018-06-16T08:34:05.043Z,1011.94
2018-06-16T08:35:05.069Z,1011.93
2018-06-16T08:36:05.107Z,1011.97
2018-06-16T08:37:05.145Z,1011.98
2018-06-16T08:38:05.183Z,1011.97
2018-06-16T08:39:05.210Z,1011.95
2018-06-16T08:40:05.249Z,1012.00
2018-06-16T08:41:05.287Z,1011.98
2018-06-16T08:42:05.312Z,1012.00
2018-06-16T08:43:05.361Z,1012.02
2018-06-16T08:44:05.389Z,1012.01
2018-06-16T08:45:05.417Z,1011.99
2018-06-16T08:46:05.454Z,1012.03
2018-06-16T08:47:05.493Z,1012.00
2018-06-16T08:48:05.534Z,1011.99
2018-06-16T08:49:05.557Z,1012.00
2018-06-16T08:50:05.595Z,1012.01
2018-06-16T08:51:05.659Z,1011.99
2018-06-16T08:52:05.672Z,1012.00
2018-06-16T08:53:05.698Z,1011.95
2018-06-16T08:54:05.738Z,1011.93
2018-06-16T08:55:05.777Z,1011.91
2018-06-16T08:56:05.814Z,1011.93
2018-06-16T08:57:05.852Z,1011.87
2018-06-16T08:58:05.877Z,1011.87
2018-06-16T08:59:05.917Z,1011.84
2018-06-16T09:00:05.954Z,1011.82
2018-06-16T09:01:05.994Z,1011.85
2018-06-16T09:02:06.031Z,1011.88
2018-06-16T09:03:06.070Z,1011.86
2018-06-16T09:04:06.097Z,1011.88
2018-06-16T09:05:06.134Z,1011.86
2018-06-16T09:06:06.175Z,1011.87
2018-06-16T09:07:06.211Z,1011.83
2018-06-16T09:08:06.250Z,1011.88
2018-06-16T09:09:06.288Z,1011.86
2018-06-16T09:10:06.327Z,1011.89
2018-06-16T09:11:06.355Z,1011.84
2018-06-16T09:12:06.392Z,1011.78
2018-06-16T09:13:06.430Z,1011.74
2018-06-16T09:14:06.468Z,1011.73
2018-06-16T09:15:06.508Z,1011.84
2018-06-16T09:16:06.545Z,1011.77
2018-06-16T09:17:06.587Z,1011.87
2018-06-16T09:18:06.621Z,1011.81
2018-06-16T09:19:06.660Z,1011.82
2018-06-16T09:20:06.698Z,1011.79
2018-06-16T09:21:06.737Z,1011.75
2018-06-16T09:22:06.774Z,1011.74
2018-06-16T09:23:06.813Z,1011.75
2018-06-16T09:24:06.853Z,1011.72
2018-06-16T09:25:06.891Z,1011.68
2018-06-16T09:26:06.928Z,1011.64
2018-06-16T09:27:06.968Z,1011.75
2018-06-16T09:28:07.012Z,1011.75
2018-06-16T09:29:07.045Z,1011.73
2018-06-16T09:30:07.095Z,1011.75
2018-06-16T09:31:07.145Z,1011.73
2018-06-16T09:32:07.185Z,1011.82
2018-06-16T09:33:07.216Z,1011.81
2018-06-16T09:34:07.249Z,1011.72
2018-06-16T09:35:07.286Z,1011.75
2018-06-16T09:36:07.375Z,1011.71
2018-06-16T09:37:07.364Z,1011.65
2018-06-16T09:38:07.403Z,1011.61
2018-06-16T09:39:07.440Z,1011.61
2018-06-16T09:40:07.480Z,1011.63
2018-06-16T09:41:07.517Z,1011.72
2018-06-16T09:42:07.589Z,1011.69
2018-06-16T09:43:07.599Z,1011.65
2018-06-16T09:44:07.634Z,1011.67
2018-06-16T09:45:07.673Z,1011.60
2018-06-16T09:46:07.711Z,1011.54
2018-06-16T09:47:07.748Z,1011.56
2018-06-16T09:48:07.791Z,1011.56
2018-06-16T09:49:07.825Z,1011.55
2018-06-16T09:50:07.864Z,1011.60
2018-06-16T09:51:07.902Z,1011.57
2018-06-16T09:52:07.945Z,1011.52
2018-06-16T09:53:07.992Z,1011.65
2018-06-16T09:54:08.031Z,1011.57
2018-06-16T09:55:08.069Z,1011.64
2018-06-16T09:56:08.106Z,1011.61
2018-06-16T09:57:08.146Z,1011.69
2018-06-16T09:58:08.186Z,1011.70
2018-06-16T09:59:08.223Z,1011.65
2018-06-16T10:00:08.262Z,1011.70
2018-06-16T10:01:08.314Z,1011.73
2018-06-16T10:02:08.350Z,1011.75
2018-06-16T10:03:08.388Z,1011.73
2018-06-16T10:04:08.431Z,1011.82
2018-06-16T10:05:08.465Z,1011.68
2018-06-16T10:06:08.517Z,1011.75
2018-06-16T10:07:08.555Z,1011.71
2018-06-16T10:08:08.593Z,1011.65
2018-06-16T10:09:08.633Z,1011.75
2018-06-16T10:10:08.685Z,1011.72
2018-06-16T10:11:08.721Z,1011.67
2018-06-16T10:12:08.760Z,1011.58
2018-06-16T10:13:08.811Z,1011.54
2018-06-16T10:14:08.850Z,1011.50
2018-06-16T10:15:08.887Z,1011.38
2018-06-16T10:16:08.927Z,1011.36
2018-06-16T10:17:08.977Z,1011.40
2018-06-16T10:18:09.016Z,1011.33
2018-06-16T10:19:09.054Z,1011.38
2018-06-16T10:20:09.118Z,1011.42
2018-06-16T10:21:09.152Z,1011.37
2018-06-16T10:22:09.182Z,1011.32
2018-06-16T10:23:09.232Z,1011.33
2018-06-16T10:24:09.272Z,1011.35
2018-06-16T10:25:09.311Z,1011.39
2018-06-16T10:26:09.349Z,1011.43
2018-06-16T10:27:09.386Z,1011.39
2018-06-16T10:28:09.426Z,1011.36
2018-06-16T10:29:09.505Z,1011.34
2018-06-16T10:30:09.502Z,1011.28
2018-06-16T10:31:09.540Z,1011.31
2018-06-16T10:32:09.579Z,1011.37
2018-06-16T10:33:09.616Z,1011.34
2018-06-16T10:34:09.657Z,1011.35
2018-06-16T10:35:09.696Z,1011.27
2018-06-16T10:36:09.733Z,1011.28
2018-06-16T10:37:09.771Z,1011.35
2018-06-16T10:38:09.810Z,1011.34
2018-06-16T10:39:09.836Z,1011.29
2018-06-16T10:40:09.875Z,1011.29
2018-06-16T10:41:09.913Z,1011.28
2018-06-16T10:42:09.959Z,1011.24
2018-06-16T10:43:09.990Z,1011.36
2018-06-16T10:44:10.028Z,1011.18
2018-06-16T10:45:10.054Z,1011.12
2018-06-16T10:46:10.092Z,1011.11
2018-06-16T10:47:10.130Z,1011.10
2018-06-16T10:48:10.169Z,1011.16
2018-06-16T10:49:10.196Z,1011.11
2018-06-16T10:50:10.246Z,1011.11
2018-06-16T10:51:10.273Z,1011.11
2018-06-16T10:52:10.311Z,1011.10
2018-06-16T10:53:10.348Z,1011.12
2018-06-16T10:54:10.376Z,1011.18
2018-06-16T10:55:10.414Z,1011.18
2018-06-16T10:56:10.452Z,1011.16
2018-06-16T10:57:10.481Z,1011.18
2018-06-16T10:58:10.517Z,1011.19
2018-06-16T10:59:10.554Z,1011.20
2018-06-16T11:00:10.592Z,1011.18
2018-06-16T11:01:10.627Z,1011.14
2018-06-16T11:02:10.657Z,1011.08
2018-06-16T11:03:10.696Z,1011.11
2018-06-16T11:04:10.735Z,1011.11
2018-06-16T11:05:10.762Z,1011.10
2018-06-16T11:06:10.799Z,1011.06
2018-06-16T11:07:10.824Z,1011.10
2018-06-16T11:08:10.863Z,1011.12
2018-06-16T11:09:10.895Z,1011.11
2018-06-16T11:10:10.930Z,1011.13
2018-06-16T11:11:10.968Z,1011.13
2018-06-16T11:12:10.992Z,1011.14
2018-06-16T11:13:11.030Z,1011.08
2018-06-16T11:14:11.056Z,1011.10
2018-06-16T11:15:11.095Z,1011.13
2018-06-16T11:16:11.133Z,1011.13
2018-06-16T11:17:11.161Z,1011.09
2018-06-16T11:18:11.199Z,1011.03
2018-06-16T11:19:11.224Z,1010.98
2018-06-16T11:20:11.262Z,1010.96
2018-06-16T11:21:11.288Z,1010.92
2018-06-16T11:22:11.327Z,1010.95
2018-06-16T11:23:11.364Z,1010.96
2018-06-16T11:24:11.394Z,1010.97
2018-06-16T11:25:11.428Z,1010.95
2018-06-16T11:26:11.455Z,1010.97
2018-06-16T11:27:11.494Z,1010.99
2018-06-16T11:28:11.519Z,1011.04
2018-06-16T11:29:11.558Z,1011.08
2018-06-16T11:30:11.595Z,1011.07
2018-06-16T11:31:11.622Z,1011.04
2018-06-16T11:32:11.660Z,1011.05
2018-06-16T11:33:11.687Z,1011.03
2018-06-16T11:34:11.724Z,1011.07
2018-06-16T11:35:11.765Z,1010.93
2018-06-16T11:36:11.789Z,1010.91
2018-06-16T11:37:11.827Z,1010.88
2018-06-16T11:38:11.855Z,1010.82
2018-06-16T11:39:11.893Z,1010.79
2018-06-16T11:40:11.943Z,1010.75
2018-06-16T11:41:11.956Z,1010.76
2018-06-16T11:42:11.995Z,1010.76
2018-06-16T11:43:12.033Z,1010.73
2018-06-16T11:44:12.059Z,1010.72
2018-06-16T11:45:12.098Z,1010.73
2018-06-16T11:46:12.135Z,1010.71
2018-06-16T11:47:12.161Z,1010.77
2018-06-16T11:48:12.201Z,1010.73
2018-06-16T11:49:12.238Z,1010.75
2018-06-16T11:50:12.279Z,1010.72
2018-06-16T11:51:12.304Z,1010.73
2018-06-16T11:52:12.342Z,1010.73
2018-06-16T11:53:12.366Z,1010.78
2018-06-16T11:54:12.406Z,1010.76
2018-06-16T11:55:12.444Z,1010.73
2018-06-16T11:56:12.469Z,1010.68
2018-06-16T11:57:12.509Z,1010.67
2018-06-16T11:58:12.547Z,1010.69
2018-06-16T11:59:12.573Z,1010.61
2018-06-16T12:00:12.613Z,1010.61
2018-06-16T12:01:12.651Z,1010.63
2018-06-16T12:02:12.689Z,1010.61
2018-06-16T12:03:12.717Z,1010.64
2018-06-16T12:04:12.752Z,1010.60
2018-06-16T12:05:12.779Z,1010.57
2018-06-16T12:06:12.818Z,1010.56